weather.gov     
National Weather Service

Terminal Aerodrome Forecast
NWS Homepage
This page is being discontinued on March 12, 2014.
The same data is available at this site. Please update your bookmarks.
Thank you, and we apologize for the inconvenience.
Please send an email to SR-SRH.Webmaster@noaa.gov with any concerns.


Current Version
Previous Version:    01  02  03  04  05  06  07  08  09  10  11  12  13  14  15  16  17  18  19  20  21  22  23  24  25  26  27  28  29  30  
   31  32  33  
[Printable]
046
FTAK31 PAJN 281100
TAFASI
TAF
PASI 281125Z 2812/2912 VRB05KT 6SM -RA SCT025 OVC050
     FM281600 12006KT 5SM -RA BR BKN025 OVC060
     FM282100 14008KT P6SM -RA SCT025 OVC050
     FM290000 18006KT 5SM -RA BKN020 OVC040
     FM290600 16005KT 4SM -RA BR BKN015 OVC025=


U.S. Dept. of Commerce
NOAA National Weather Service
1325 East West Highway
Silver Spring, MD 20910
E-mail: w-nws.webmaster@noaa.gov
Page last modified: May 16, 2007
NATIONAL WEATHER SERVICE: for Safety, for Work, for Fun - FOR LIFE